HLE05 EGPF-EGPF

Flight info

Callsign HLE05
Flight time N/A
Altitude 1500
Route VFR HEMS
Aircraft EC45/L-V/N

Departure

Time 2026-04-28 15:24
Airport Glasgow Airport (EGPF)

Arrival

Time N/A
Airport Glasgow Airport (EGPF)
Time Latitude Longitude Altitude Speed Heading
2026-04-28 15:18 55.87242 -4.42520 27 ft 0 kts 289°
2026-04-28 15:22 55.87243 -4.42520 27 ft 1 kts 279°
2026-04-28 15:23 55.87243 -4.42532 39 ft 4 kts 88°
2026-04-28 15:23 55.87241 -4.42532 39 ft 1 kts 15°
2026-04-28 15:23 55.87270 -4.42535 41 ft 4 kts 54°
2026-04-28 15:23 55.87263 -4.42577 125 ft 8 kts 62°
2026-04-28 15:24 55.87292 -4.42512 374 ft 39 kts 57°
2026-04-28 15:24 55.87604 -4.42102 627 ft 78 kts
2026-04-28 15:24 55.88177 -4.42687 768 ft 105 kts 329°
2026-04-28 15:24 55.88699 -4.43464 906 ft 89 kts 324°
2026-04-28 15:25 55.89160 -4.44195 941 ft 99 kts 326°
2026-04-28 15:25 55.89771 -4.45073 965 ft 127 kts 328°
2026-04-28 15:25 55.90421 -4.46182 1002 ft 130 kts 313°
2026-04-28 15:25 55.90943 -4.47537 995 ft 133 kts 307°
2026-04-28 15:26 55.91429 -4.48943 998 ft 133 kts 306°
2026-04-28 15:26 55.91918 -4.50321 997 ft 134 kts 306°
2026-04-28 15:26 55.92411 -4.51747 999 ft 135 kts 307°
2026-04-28 15:26 55.92899 -4.53176 999 ft 135 kts 306°
2026-04-28 15:27 55.93402 -4.54581 1141 ft 133 kts 304°
2026-04-28 15:27 55.93750 -4.56082 1234 ft 131 kts 290°
2026-04-28 15:27 55.93955 -4.57688 1268 ft 134 kts 284°
2026-04-28 15:27 55.94161 -4.59319 1283 ft 136 kts 284°
2026-04-28 15:28 55.94371 -4.60979 1290 ft 138 kts 284°
2026-04-28 15:28 55.94575 -4.62647 1294 ft 140 kts 284°
2026-04-28 15:28 55.94786 -4.64344 1294 ft 141 kts 286°
2026-04-28 15:28 55.95010 -4.66038 1298 ft 141 kts 286°
2026-04-28 15:29 55.95231 -4.67741 1296 ft 140 kts 286°
2026-04-28 15:29 55.95453 -4.69432 1290 ft 141 kts 286°
2026-04-28 15:29 55.95529 -4.69990 1289 ft 142 kts 286°
2026-04-28 15:29 55.95636 -4.70768 1290 ft 142 kts 286°
2026-04-28 15:30 55.95801 -4.71992 1292 ft 138 kts 286°
2026-04-28 15:30 55.96020 -4.73648 1291 ft 137 kts 285°
2026-04-28 15:30 55.96249 -4.75289 1291 ft 135 kts 287°
2026-04-28 15:31 55.96483 -4.76911 1294 ft 134 kts 288°
2026-04-28 15:31 55.96741 -4.78501 1293 ft 135 kts 288°
2026-04-28 15:31 55.97019 -4.80095 1292 ft 134 kts 290°
2026-04-28 15:31 55.97182 -4.81761 1291 ft 140 kts 277°
2026-04-28 15:32 55.97137 -4.83513 1295 ft 140 kts 260°
2026-04-28 15:32 55.96985 -4.84631 1291 ft 137 kts 252°
2026-04-28 15:32 55.96508 -4.86578 1293 ft 138 kts 239°
2026-04-28 15:32 55.95957 -4.87982 1289 ft 139 kts 228°
2026-04-28 15:33 55.95276 -4.89187 1290 ft 135 kts 216°
2026-04-28 15:33 55.94500 -4.90125 1287 ft 135 kts 205°
2026-04-28 15:33 55.93661 -4.90815 1290 ft 133 kts 199°
2026-04-28 15:33 55.92813 -4.91482 1289 ft 132 kts 197°
2026-04-28 15:34 55.91967 -4.92116 1286 ft 133 kts 199°
2026-04-28 15:34 55.91136 -4.92731 1290 ft 130 kts 198°
2026-04-28 15:34 55.90290 -4.93344 1290 ft 131 kts 197°
2026-04-28 15:34 55.89448 -4.94017 1289 ft 134 kts 204°
2026-04-28 15:35 55.88677 -4.95006 1290 ft 141 kts 223°
2026-04-28 15:35 55.87910 -4.98155 1294 ft 140 kts 264°
2026-04-28 15:35 55.87944 -4.99876 1288 ft 140 kts 282°
2026-04-28 15:36 55.88140 -5.01571 1289 ft 138 kts 283°
2026-04-28 15:36 55.88376 -5.03213 1289 ft 138 kts 288°
2026-04-28 15:36 55.88615 -5.04739 1290 ft 139 kts 288°
2026-04-28 15:36 55.88893 -5.06372 1286 ft 137 kts 291°
2026-04-28 15:37 55.89201 -5.08008 1294 ft 138 kts 290°
2026-04-28 15:37 55.89521 -5.09614 1293 ft 137 kts 291°
2026-04-28 15:37 55.89847 -5.11227 1291 ft 139 kts 292°
2026-04-28 15:37 55.90101 -5.12279 1289 ft 138 kts 302°
2026-04-28 15:38 55.90873 -5.14065 1289 ft 134 kts 317°
2026-04-28 15:38 55.91548 -5.15214 1286 ft 135 kts 321°
2026-04-28 15:38 55.92233 -5.16350 1289 ft 134 kts 320°
2026-04-28 15:38 55.92916 -5.17465 1291 ft 133 kts 322°
2026-04-28 15:39 55.93590 -5.18580 1418 ft 129 kts 321°
2026-04-28 15:39 55.94276 -5.19537 1551 ft 121 kts 335°
2026-04-28 15:39 55.95029 -5.20160 1717 ft 117 kts 341°
2026-04-28 15:39 55.95772 -5.20673 1811 ft 117 kts 343°
2026-04-28 15:40 55.96570 -5.21196 1850 ft 128 kts 343°
2026-04-28 15:40 55.97415 -5.21768 1868 ft 131 kts 342°
2026-04-28 15:40 55.98133 -5.22267 1880 ft 133 kts 343°
2026-04-28 15:41 55.98780 -5.22735 1878 ft 135 kts 341°
2026-04-28 15:41 55.99090 -5.22951 1881 ft 135 kts 342°
2026-04-28 15:41 55.99954 -5.23560 1882 ft 134 kts 342°
2026-04-28 15:42 56.00832 -5.24190 1885 ft 134 kts 341°
2026-04-28 15:42 56.01409 -5.24595 1886 ft 135 kts 342°
2026-04-28 15:42 56.02568 -5.25420 1886 ft 135 kts 342°
2026-04-28 15:42 56.03435 -5.26043 1885 ft 133 kts 342°
2026-04-28 15:43 56.04008 -5.26453 1889 ft 129 kts 342°
2026-04-28 15:43 56.04829 -5.27090 1888 ft 133 kts 342°
2026-04-28 15:43 56.05685 -5.27761 1890 ft 134 kts 341°
2026-04-28 15:43 56.06543 -5.28391 1887 ft 132 kts 344°
2026-04-28 15:44 56.07424 -5.28460 1888 ft 126 kts 18°
2026-04-28 15:44 56.08182 -5.27739 1891 ft 122 kts 39°
2026-04-28 15:44 56.08843 -5.26787 1891 ft 121 kts 43°
2026-04-28 15:44 56.09482 -5.25821 1889 ft 121 kts 44°
2026-04-28 15:45 56.10126 -5.24844 1889 ft 119 kts 43°
2026-04-28 15:45 56.10767 -5.23876 1884 ft 123 kts 41°
2026-04-28 15:45 56.11440 -5.22961 1886 ft 121 kts 41°
2026-04-28 15:45 56.12121 -5.22059 1889 ft 120 kts 40°
2026-04-28 15:46 56.12798 -5.21176 1888 ft 121 kts 39°
2026-04-28 15:46 56.13481 -5.20274 1888 ft 121 kts 39°
2026-04-28 15:46 56.14042 -5.19192 1886 ft 120 kts 59°
2026-04-28 15:46 56.14449 -5.17895 1885 ft 119 kts 64°
2026-04-28 15:47 56.14835 -5.16568 1886 ft 121 kts 64°
2026-04-28 15:47 56.15224 -5.15236 1887 ft 120 kts 64°
2026-04-28 15:47 56.15606 -5.13899 1885 ft 121 kts 64°
2026-04-28 15:47 56.15990 -5.12552 1889 ft 119 kts 63°
2026-04-28 15:48 56.16356 -5.11227 1882 ft 119 kts 64°
2026-04-28 15:48 56.16796 -5.09977 1885 ft 120 kts 48°
2026-04-28 15:48 56.17529 -5.09238 1884 ft 124 kts 26°
2026-04-28 15:48 56.18346 -5.08733 1884 ft 125 kts 21°
2026-04-28 15:49 56.19178 -5.08268 1886 ft 126 kts 20°
2026-04-28 15:49 56.20010 -5.07829 1887 ft 127 kts 20°